Etusivu
METAR-TAF:

METAR-TAF

Lentoasemat :

Sikeston, Missouri, Yhdysvallat

Leveyspiiri: 36-53-56N, Pituuspiiri: 089-33-42W, korkeus merenpinnasta: 96 m

Tämänhetkinen sää

Tämä raportti tehtiin 18 minuuttia sitten, kello 04.15 UTC
Tuuli 5 kn pohjoisesta
Lämpötila 8°C
Kosteus 87%
Ilmanpaine 1020 hPa
Näkyvyys: 16.1 km
Pilvistä 2900 ft:n korkeudessa

METAR: KSIK 050415Z AUTO 35005KT 10SM OVC029 08/06 A3011 RMK AO2

Aika: 23:33 (04:33 UTC)


TAF: puuttuu

Säähavainnot ja -ennusteet yli 4000 lentoasemalta (METAR- ja TAF-raportit).

Käytössä olevat sääasemat on merkitty karttaan keltaisilla ja punaisilla pisteillä.

Aseta hiiri pisteen päälle nähdäksesi sääaseman nimen.

Klikkaa sitten nähdäksesi säähavainnot ja -ennusteet.

Kartan vaihtaminen: klikkaa mustalla rastilla varustettuja vihreitä pisteitä, niin voit zoomata sisään; viivalla varustettua vihreää pistettä, niin voit zoomata ulos tai vihreitä nuolia, niin pääset viereisille kartoille.


METAR-TAF: